Time;durP1;ratioP1;P1;durP2;ratioP2;P2;SDS_P1;SDS_P2;PMS_P1;PMS_P2;Temp;Humidity;BMP_temperature;BMP_pressure;BME280_temperature;BME280_humidity;BME280_pressure;Samples;Min_cycle;Max_cycle;Signal;HPM_P1;HPM_P2
2023/09/03 00:02:17;;;;;;;23.73;16.92;;;15.00;99.90;;;;;;4973034;28;20571;-69
2023/09/03 00:04:43;;;;;;;27.65;16.10;;;15.00;99.90;;;;;;4970879;28;20190;-71
2023/09/03 00:07:09;;;;;;;22.60;15.65;;;14.90;99.90;;;;;;4974519;28;20256;-70
2023/09/03 00:09:35;;;;;;;24.77;18.52;;;14.90;99.90;;;;;;4971980;28;20245;-69
2023/09/03 00:12:03;;;;;;;28.10;18.88;;;14.90;99.90;;;;;;4974458;28;20662;-68
2023/09/03 00:14:29;;;;;;;27.00;19.20;;;14.90;99.90;;;;;;4969611;28;20200;-68
2023/09/03 00:16:55;;;;;;;27.63;19.33;;;14.90;99.90;;;;;;4973560;28;20214;-68
2023/09/03 00:19:21;;;;;;;29.38;19.13;;;14.90;99.90;;;;;;4971573;28;20198;-68
2023/09/03 00:21:47;;;;;;;28.17;19.38;;;14.90;99.90;;;;;;4975059;28;20269;-68
2023/09/03 00:24:13;;;;;;;25.00;19.33;;;14.80;99.90;;;;;;5011652;28;20594;-68
2023/09/03 00:26:38;;;;;;;26.30;20.02;;;14.80;99.90;;;;;;4975349;28;20545;-68
2023/09/03 00:29:05;;;;;;;29.38;20.90;;;14.80;99.90;;;;;;4971580;28;20286;-69
2023/09/03 00:31:31;;;;;;;25.98;20.48;;;14.80;99.90;;;;;;4972883;28;20622;-68
2023/09/03 00:33:57;;;;;;;27.30;20.90;;;14.80;99.90;;;;;;4974169;28;20213;-71
2023/09/03 00:36:22;;;;;;;29.10;21.45;;;14.80;99.90;;;;;;5000010;28;20221;-68
2023/09/03 00:38:49;;;;;;;31.20;21.52;;;14.80;99.90;;;;;;4968755;28;20201;-69
2023/09/03 00:41:16;;;;;;;31.58;20.33;;;14.80;99.90;;;;;;4998355;28;20196;-70
2023/09/03 00:43:42;;;;;;;26.30;19.13;;;14.70;99.90;;;;;;4971594;28;20264;-68
2023/09/03 00:46:08;;;;;;;29.05;20.02;;;14.80;99.90;;;;;;5004215;28;20190;-68
2023/09/03 00:48:36;;;;;;;31.33;20.33;;;14.70;99.90;;;;;;4969219;28;20187;-70
2023/09/03 00:51:06;;;;;;;25.58;20.50;;;14.70;99.90;;;;;;4970080;28;20196;-69
2023/09/03 00:53:34;;;;;;;34.60;20.92;;;14.70;99.90;;;;;;4996446;28;20213;-68
2023/09/03 00:56:01;;;;;;;28.08;20.45;;;14.70;99.90;;;;;;4974208;28;20201;-68
2023/09/03 00:58:27;;;;;;;30.58;19.98;;;14.70;99.90;;;;;;4970904;28;20198;-69
2023/09/03 01:00:53;;;;;;;25.73;18.88;;;14.70;99.90;;;;;;4971983;28;20186;-69
2023/09/03 01:03:20;;;;;;;28.70;19.40;;;14.70;99.90;;;;;;4964919;28;20721;-68
2023/09/03 01:05:46;;;;;;;24.35;19.48;;;14.60;99.90;;;;;;4971927;28;20189;-69
2023/09/03 01:08:12;;;;;;;26.75;18.77;;;14.70;99.90;;;;;;4969340;28;20647;-70
2023/09/03 01:10:42;;;;;;;23.02;17.98;;;14.70;99.90;;;;;;4973254;28;20619;-68
2023/09/03 01:13:24;;;;;;;24.67;17.48;;;14.70;99.90;;;;;;4968768;28;20191;-69
2023/09/03 01:15:53;;;;;;;24.83;17.70;;;14.70;99.90;;;;;;4966080;28;20213;-68
2023/09/03 01:18:25;;;;;;;30.50;18.20;;;14.70;99.90;;;;;;4972550;28;20499;-69
2023/09/03 01:21:15;;;;;;;23.45;16.58;;;14.70;99.90;;;;;;4974000;28;20189;-69
2023/09/03 01:24:18;;;;;;;25.27;16.83;;;14.70;99.90;;;;;;4967131;28;20186;-69
2023/09/03 01:26:55;;;;;;;19.75;16.55;;;14.70;99.90;;;;;;4973455;28;20197;-70
2023/09/03 01:29:22;;;;;;;20.17;15.95;;;14.70;99.90;;;;;;4964745;28;20194;-70
2023/09/03 01:31:48;;;;;;;24.45;16.48;;;14.80;99.90;;;;;;4968435;28;20189;-68
2023/09/03 01:34:16;;;;;;;20.88;16.05;;;14.80;99.90;;;;;;4964205;28;20187;-67
2023/09/03 01:36:43;;;;;;;23.13;17.70;;;14.80;99.90;;;;;;4973138;28;20217;-68
2023/09/03 01:39:09;;;;;;;33.78;23.48;;;14.80;99.90;;;;;;4967111;28;20220;-69
2023/09/03 01:41:37;;;;;;;34.53;24.85;;;14.80;99.90;;;;;;4973146;28;20264;-70
2023/09/03 01:44:05;;;;;;;40.17;28.65;;;14.80;99.90;;;;;;4968040;28;20182;-68
2023/09/03 01:46:40;;;;;;;46.13;29.30;;;14.80;99.90;;;;;;4971082;28;20713;-68
2023/09/03 01:49:27;;;;;;;38.67;26.45;;;14.80;99.90;;;;;;4970158;28;20610;-68
2023/09/03 01:52:29;;;;;;;35.10;25.15;;;14.80;99.90;;;;;;4972642;28;20216;-68
2023/09/03 01:54:57;;;;;;;33.17;23.58;;;14.80;99.90;;;;;;4986532;28;20548;-68
2023/09/03 01:57:36;;;;;;;34.33;22.88;;;14.90;99.90;;;;;;4970503;28;20215;-64
2023/09/03 02:00:09;;;;;;;29.10;19.98;;;14.80;99.90;;;;;;4970895;28;20666;-64
2023/09/03 02:02:43;;;;;;;25.90;19.55;;;14.90;99.90;;;;;;4959828;28;20229;-64
2023/09/03 02:05:09;;;;;;;23.70;17.92;;;14.90;99.90;;;;;;4992763;28;20183;-64
2023/09/03 02:07:35;;;;;;;24.30;17.90;;;14.80;99.90;;;;;;4962947;28;20241;-62
2023/09/03 02:10:01;;;;;;;25.55;17.00;;;14.80;99.90;;;;;;4983091;28;20198;-64
2023/09/03 02:12:27;;;;;;;23.70;16.75;;;14.80;99.90;;;;;;4954946;28;20289;-65
2023/09/03 02:14:53;;;;;;;23.10;15.68;;;14.80;99.90;;;;;;4984438;28;20284;-72
2023/09/03 02:17:20;;;;;;;20.60;15.98;;;14.80;99.90;;;;;;4971773;28;20280;-65
2023/09/03 02:19:50;;;;;;;25.75;14.63;;;14.80;99.90;;;;;;4970328;28;20579;-65
2023/09/03 02:22:17;;;;;;;21.85;15.38;;;14.80;99.90;;;;;;4966624;28;20189;-67
2023/09/03 02:24:43;;;;;;;22.80;15.95;;;14.80;99.90;;;;;;4971344;28;20189;-65
2023/09/03 02:27:10;;;;;;;21.95;15.98;;;14.70;99.90;;;;;;4971091;28;20245;-65
2023/09/03 02:29:38;;;;;;;22.48;16.02;;;14.70;99.90;;;;;;4971128;28;20190;-65
2023/09/03 02:32:07;;;;;;;22.73;16.92;;;14.70;99.90;;;;;;4971651;28;20674;-64
2023/09/03 02:34:36;;;;;;;21.90;16.17;;;14.70;99.90;;;;;;4970630;28;20260;-64
2023/09/03 02:37:04;;;;;;;23.70;16.55;;;14.60;99.90;;;;;;4983898;28;20210;-64
2023/09/03 02:39:30;;;;;;;20.10;16.08;;;14.60;99.90;;;;;;4971512;28;20653;-62
2023/09/03 02:41:57;;;;;;;19.90;16.45;;;14.60;99.90;;;;;;4972616;28;20201;-64
2023/09/03 02:44:23;;;;;;;19.58;15.80;;;14.60;99.90;;;;;;4948928;28;20213;-66
2023/09/03 02:46:49;;;;;;;21.50;15.35;;;14.60;99.90;;;;;;4971458;28;20242;-65
2023/09/03 02:49:15;;;;;;;19.35;16.25;;;14.60;99.90;;;;;;4933421;28;20186;-62
2023/09/03 02:51:42;;;;;;;20.42;15.43;;;14.60;99.90;;;;;;4999232;28;20194;-61
2023/09/03 02:54:08;;;;;;;20.85;16.15;;;14.60;99.90;;;;;;4966084;28;20650;-60
2023/09/03 02:56:34;;;;;;;21.85;16.70;;;14.50;99.90;;;;;;4971101;28;20268;-60
2023/09/03 02:59:00;;;;;;;20.42;16.38;;;14.50;99.90;;;;;;4950177;28;20198;-60
2023/09/03 03:01:26;;;;;;;21.52;16.65;;;14.40;99.90;;;;;;4972509;28;20254;-61
2023/09/03 03:03:52;;;;;;;23.92;16.60;;;14.40;99.90;;;;;;4970488;28;20660;-60
2023/09/03 03:06:18;;;;;;;21.55;16.83;;;14.40;99.90;;;;;;4975531;28;20195;-63
2023/09/03 03:08:44;;;;;;;22.25;16.40;;;14.40;99.90;;;;;;4972474;28;20189;-61
2023/09/03 03:11:13;;;;;;;24.45;18.40;;;14.30;99.90;;;;;;4988063;28;20190;-61
2023/09/03 03:13:45;;;;;;;24.27;17.55;;;14.30;99.90;;;;;;4985763;28;20663;-62
2023/09/03 03:16:13;;;;;;;28.92;18.77;;;14.30;99.90;;;;;;4976327;28;22060;-63
2023/09/03 03:18:42;;;;;;;28.48;19.05;;;14.30;99.90;;;;;;4970584;28;20302;-63
2023/09/03 03:21:20;;;;;;;26.95;19.33;;;14.30;99.90;;;;;;5000292;28;20182;-62
2023/09/03 03:23:51;;;;;;;24.25;20.05;;;14.20;99.90;;;;;;4976569;28;20676;-62
2023/09/03 03:26:19;;;;;;;24.70;19.25;;;14.20;99.90;;;;;;4991983;28;20213;-61
2023/09/03 03:28:46;;;;;;;27.90;20.35;;;14.20;99.90;;;;;;4970601;28;20190;-62
2023/09/03 03:31:18;;;;;;;25.35;19.92;;;14.20;99.90;;;;;;4985573;28;20194;-62
2023/09/03 03:33:47;;;;;;;25.60;19.77;;;14.20;99.90;;;;;;4967807;28;20182;-62
2023/09/03 03:36:18;;;;;;;26.65;19.90;;;14.20;99.90;;;;;;4974808;28;20210;-61
2023/09/03 03:38:45;;;;;;;29.90;19.65;;;14.20;99.90;;;;;;4970905;28;20206;-61
2023/09/03 03:41:12;;;;;;;27.42;19.95;;;14.20;99.90;;;;;;4972209;28;20256;-61
2023/09/03 03:43:48;;;;;;;27.75;20.48;;;14.20;99.90;;;;;;4985338;28;20194;-66
2023/09/03 03:46:16;;;;;;;26.75;20.58;;;14.20;99.90;;;;;;4976367;28;20177;-65
2023/09/03 03:48:45;;;;;;;24.42;19.40;;;14.20;99.90;;;;;;4998475;28;20201;-66
2023/09/03 03:51:11;;;;;;;29.88;21.23;;;14.20;99.90;;;;;;5003910;28;20193;-65
2023/09/03 03:53:38;;;;;;;26.52;19.98;;;14.20;99.90;;;;;;4971339;28;20194;-65
2023/09/03 03:56:09;;;;;;;24.83;18.85;;;14.20;99.90;;;;;;4971661;28;20673;-65
2023/09/03 03:58:37;;;;;;;27.88;20.33;;;14.20;99.90;;;;;;4985485;28;20244;-66
2023/09/03 04:01:15;;;;;;;28.45;19.75;;;14.20;99.90;;;;;;4990120;28;20189;-65
2023/09/03 04:03:42;;;;;;;27.65;20.65;;;14.20;99.90;;;;;;4982470;28;20251;-64
2023/09/03 04:06:08;;;;;;;31.45;20.15;;;14.20;99.90;;;;;;4974939;28;20273;-64
2023/09/03 04:08:36;;;;;;;26.40;20.38;;;14.20;99.90;;;;;;4971949;28;20197;-66
2023/09/03 04:11:10;;;;;;;27.50;19.60;;;14.20;99.90;;;;;;4986101;28;20258;-69
2023/09/03 04:13:38;;;;;;;27.02;20.42;;;14.20;99.90;;;;;;4969772;28;20268;-63
2023/09/03 04:16:09;;;;;;;28.42;20.05;;;14.20;99.90;;;;;;4973891;28;20213;-65
2023/09/03 04:18:36;;;;;;;27.15;20.77;;;14.20;99.90;;;;;;4970460;28;20249;-63
2023/09/03 04:21:02;;;;;;;27.13;20.08;;;14.20;99.90;;;;;;4956642;28;20201;-64
2023/09/03 04:23:29;;;;;;;31.05;20.75;;;14.20;99.90;;;;;;5000684;28;20190;-63
2023/09/03 04:25:57;;;;;;;25.90;18.63;;;14.20;99.90;;;;;;4982033;28;20190;-65
2023/09/03 04:28:25;;;;;;;25.48;17.70;;;14.20;99.90;;;;;;4970839;28;20182;-66
2023/09/03 04:30:54;;;;;;;23.60;18.90;;;14.20;99.90;;;;;;4984646;28;20198;-65
2023/09/03 04:33:20;;;;;;;26.17;17.58;;;14.20;99.90;;;;;;4969688;28;20186;-64
2023/09/03 04:35:47;;;;;;;24.98;18.80;;;14.30;99.90;;;;;;4989083;28;20256;-64
2023/09/03 04:38:13;;;;;;;25.20;18.35;;;14.20;99.90;;;;;;4992600;28;20182;-65
2023/09/03 04:40:43;;;;;;;22.73;17.58;;;14.20;99.90;;;;;;4969991;28;20194;-66
2023/09/03 04:43:09;;;;;;;23.70;17.70;;;14.20;99.90;;;;;;4995548;28;20186;-65
2023/09/03 04:45:36;;;;;;;22.00;17.40;;;14.20;99.90;;;;;;4956947;28;20202;-64
2023/09/03 04:48:03;;;;;;;26.65;17.63;;;14.20;99.90;;;;;;4988214;28;20706;-65
2023/09/03 04:50:33;;;;;;;22.98;16.73;;;14.20;99.90;;;;;;4972954;28;20204;-64
2023/09/03 04:52:59;;;;;;;24.60;18.02;;;14.20;99.90;;;;;;4972900;28;20678;-66
2023/09/03 04:55:25;;;;;;;22.70;16.50;;;14.20;99.90;;;;;;4970473;28;20280;-65
2023/09/03 04:57:52;;;;;;;22.25;16.45;;;14.20;99.90;;;;;;4971484;28;20301;-64
2023/09/03 05:00:22;;;;;;;19.55;16.83;;;14.20;99.90;;;;;;4971773;28;20280;-65
2023/09/03 05:02:48;;;;;;;23.90;18.80;;;14.20;99.90;;;;;;4968992;28;20336;-64
2023/09/03 05:05:15;;;;;;;24.35;18.10;;;14.20;99.90;;;;;;4969850;28;20285;-66
2023/09/03 05:07:41;;;;;;;27.70;18.50;;;14.20;99.90;;;;;;4968448;28;20193;-64
2023/09/03 05:10:08;;;;;;;26.17;18.55;;;14.20;99.90;;;;;;4968823;28;20190;-64
2023/09/03 05:12:34;;;;;;;24.02;18.15;;;14.20;99.90;;;;;;4969632;28;20194;-63
2023/09/03 05:15:00;;;;;;;21.85;17.77;;;14.20;99.90;;;;;;4971725;28;20197;-62
2023/09/03 05:17:26;;;;;;;25.75;17.85;;;14.30;99.90;;;;;;4999410;28;20221;-65
2023/09/03 05:19:52;;;;;;;24.23;18.80;;;14.30;99.90;;;;;;4968278;28;20194;-65
2023/09/03 05:22:18;;;;;;;25.83;18.42;;;14.30;99.90;;;;;;4965890;28;20186;-62
2023/09/03 05:24:44;;;;;;;23.35;19.27;;;14.30;99.90;;;;;;4970877;28;20195;-64
2023/09/03 05:27:10;;;;;;;24.60;18.38;;;14.40;99.90;;;;;;4980487;28;20195;-65
2023/09/03 05:29:36;;;;;;;22.17;17.15;;;14.40;99.90;;;;;;4966206;28;20674;-63
2023/09/03 05:32:03;;;;;;;22.25;16.88;;;14.40;99.90;;;;;;4956812;28;20193;-65
2023/09/03 05:34:29;;;;;;;22.13;17.33;;;14.50;99.90;;;;;;4999577;28;20276;-64
2023/09/03 05:36:55;;;;;;;21.30;15.43;;;14.50;99.90;;;;;;5002274;28;20218;-63
2023/09/03 05:39:21;;;;;;;20.23;15.90;;;14.50;99.90;;;;;;4970203;28;20193;-64
2023/09/03 05:41:47;;;;;;;21.20;16.10;;;14.60;99.90;;;;;;4971885;28;20188;-64
2023/09/03 05:44:15;;;;;;;21.98;15.60;;;14.60;99.90;;;;;;4970407;28;20190;-63
2023/09/03 05:46:43;;;;;;;19.92;15.27;;;14.70;99.90;;;;;;4970050;28;20653;-65
2023/09/03 05:49:09;;;;;;;21.52;13.88;;;14.70;99.90;;;;;;4998802;28;20252;-62
2023/09/03 05:51:35;;;;;;;17.25;13.80;;;14.80;99.90;;;;;;4988032;28;20198;-64
2023/09/03 05:54:01;;;;;;;18.08;13.13;;;14.90;99.90;;;;;;4970703;28;20190;-63
2023/09/03 05:56:27;;;;;;;17.98;12.30;;;14.90;99.90;;;;;;4955729;28;20217;-63
2023/09/03 05:58:53;;;;;;;20.33;13.45;;;15.00;99.90;;;;;;4969226;28;20189;-64
2023/09/03 06:01:19;;;;;;;18.27;12.40;;;15.00;99.90;;;;;;4973110;28;20252;-63
2023/09/03 06:03:46;;;;;;;15.10;12.13;;;15.10;99.90;;;;;;4980174;28;20237;-63
2023/09/03 06:06:13;;;;;;;15.23;11.60;;;15.20;99.90;;;;;;4952771;28;20190;-62
2023/09/03 06:08:41;;;;;;;15.48;12.00;;;15.20;99.90;;;;;;4990179;28;20218;-62
2023/09/03 06:11:08;;;;;;;15.40;11.40;;;15.30;99.90;;;;;;4970538;28;20252;-63
2023/09/03 06:13:34;;;;;;;15.52;11.85;;;15.40;99.90;;;;;;4969297;28;20325;-65
2023/09/03 06:16:00;;;;;;;13.20;10.82;;;15.40;99.90;;;;;;4977246;28;20210;-65
2023/09/03 06:18:26;;;;;;;15.07;10.50;;;15.50;99.90;;;;;;4972357;28;20202;-63
2023/09/03 06:20:52;;;;;;;15.23;11.40;;;15.50;99.90;;;;;;4972994;28;20194;-63
2023/09/03 06:23:19;;;;;;;14.25;10.77;;;15.60;99.90;;;;;;4971451;28;20669;-64
2023/09/03 06:25:48;;;;;;;14.32;10.90;;;15.70;99.90;;;;;;4973809;28;20198;-64
2023/09/03 06:28:15;;;;;;;16.35;11.52;;;15.70;99.90;;;;;;4967718;28;20190;-62
2023/09/03 06:30:41;;;;;;;14.35;10.95;;;15.80;99.90;;;;;;4966712;28;20204;-62
2023/09/03 06:33:08;;;;;;;16.75;10.70;;;15.90;99.90;;;;;;4967840;28;20233;-63
2023/09/03 06:35:34;;;;;;;13.82;10.35;;;15.90;99.90;;;;;;4969330;28;20650;-65
2023/09/03 06:38:00;;;;;;;15.77;11.02;;;16.00;99.90;;;;;;4963878;28;20639;-62
2023/09/03 06:40:27;;;;;;;13.50;9.48;;;16.10;99.90;;;;;;4972734;28;20185;-66
2023/09/03 06:42:53;;;;;;;11.18;8.85;;;16.10;99.90;;;;;;4986264;28;20725;-62
2023/09/03 06:45:19;;;;;;;11.18;8.77;;;16.20;99.90;;;;;;4982333;28;20228;-62
2023/09/03 06:47:46;;;;;;;11.60;8.40;;;16.30;99.90;;;;;;4978870;28;20187;-62
2023/09/03 06:50:12;;;;;;;12.45;8.27;;;16.30;99.90;;;;;;4987732;28;20650;-61
2023/09/03 06:52:38;;;;;;;11.43;7.20;;;16.40;99.90;;;;;;4973363;28;20205;-60
2023/09/03 06:55:05;;;;;;;8.98;7.45;;;16.40;99.90;;;;;;4972924;28;20193;-61
2023/09/03 06:57:31;;;;;;;7.68;6.78;;;16.50;99.90;;;;;;4970963;28;20214;-61
2023/09/03 06:59:57;;;;;;;10.50;7.35;;;16.50;99.90;;;;;;4972065;28;20289;-61
2023/09/03 07:02:25;;;;;;;9.02;6.68;;;16.60;99.90;;;;;;4981689;28;20269;-61
2023/09/03 07:04:51;;;;;;;7.93;6.07;;;16.60;99.90;;;;;;4974285;28;20351;-68
2023/09/03 07:07:17;;;;;;;10.88;6.43;;;16.70;99.90;;;;;;4971334;28;20182;-65
2023/09/03 07:09:43;;;;;;;9.10;6.30;;;16.80;99.90;;;;;;4975637;28;20220;-63
2023/09/03 07:12:12;;;;;;;6.90;6.20;;;16.80;99.90;;;;;;4987600;28;20676;-60
2023/09/03 07:14:38;;;;;;;7.80;5.95;;;16.90;99.90;;;;;;4973911;28;20181;-61
2023/09/03 07:17:04;;;;;;;6.70;5.40;;;16.90;99.90;;;;;;4980425;28;20261;-61
2023/09/03 07:19:30;;;;;;;7.45;5.95;;;17.00;99.90;;;;;;4970943;28;20225;-62
2023/09/03 07:21:56;;;;;;;9.52;5.55;;;17.10;99.90;;;;;;5012377;28;20190;-62
2023/09/03 07:24:30;;;;;;;8.88;4.95;;;17.20;99.90;;;;;;4973260;28;20189;-61
2023/09/03 07:26:57;;;;;;;9.85;5.40;;;17.30;99.90;;;;;;4975710;28;20299;-62
2023/09/03 07:29:24;;;;;;;6.35;4.45;;;17.30;99.90;;;;;;5001236;28;20206;-62
2023/09/03 07:31:50;;;;;;;7.88;5.13;;;17.50;99.90;;;;;;4983692;28;20193;-63
2023/09/03 07:34:19;;;;;;;6.72;4.80;;;17.60;99.90;;;;;;4973214;28;20190;-63
2023/09/03 07:36:49;;;;;;;5.60;4.50;;;17.60;99.90;;;;;;4966731;28;20213;-62
2023/09/03 07:39:15;;;;;;;5.90;4.53;;;17.70;99.90;;;;;;4994612;28;20654;-64
2023/09/03 07:41:48;;;;;;;6.43;4.90;;;17.70;99.90;;;;;;4965733;28;20613;-64
2023/09/03 07:44:31;;;;;;;7.13;4.68;;;17.80;99.90;;;;;;4984065;28;20281;-66
2023/09/03 07:47:01;;;;;;;10.05;4.90;;;17.80;99.90;;;;;;4970513;28;20655;-63
2023/09/03 07:49:30;;;;;;;8.65;5.35;;;18.00;99.90;;;;;;4959861;28;20655;-64
2023/09/03 07:52:06;;;;;;;5.97;4.47;;;17.90;99.90;;;;;;4975619;28;20190;-67
2023/09/03 07:54:36;;;;;;;6.22;4.47;;;18.00;99.90;;;;;;5007347;28;20190;-66
2023/09/03 07:57:12;;;;;;;6.47;4.30;;;18.10;99.90;;;;;;4981820;28;20218;-66
2023/09/03 07:59:39;;;;;;;7.25;4.60;;;18.10;99.90;;;;;;4975769;28;20670;-62
2023/09/03 08:02:05;;;;;;;11.27;4.75;;;18.20;99.90;;;;;;4992729;28;20587;-71
2023/09/03 08:04:30;;;;;;;7.55;4.30;;;18.20;99.90;;;;;;4991795;28;20232;-64
2023/09/03 08:06:56;;;;;;;8.38;4.43;;;18.30;99.90;;;;;;4998573;28;20197;-67
2023/09/03 08:09:24;;;;;;;5.30;3.70;;;18.30;99.90;;;;;;4972266;28;20212;-64
2023/09/03 08:11:51;;;;;;;4.65;3.80;;;18.40;99.90;;;;;;4978168;28;20205;-63
2023/09/03 08:14:17;;;;;;;5.57;3.58;;;18.40;99.90;;;;;;4971174;28;20186;-63
2023/09/03 08:16:43;;;;;;;10.90;4.03;;;18.40;99.90;;;;;;4980164;28;20305;-64
2023/09/03 08:19:09;;;;;;;6.20;3.50;;;18.50;99.90;;;;;;4972426;28;20209;-64
2023/09/03 08:21:35;;;;;;;8.13;4.10;;;18.50;99.90;;;;;;4971018;28;20669;-70
2023/09/03 08:24:01;;;;;;;6.53;3.53;;;18.60;99.90;;;;;;4971499;28;20186;-66
2023/09/03 08:26:27;;;;;;;5.40;4.07;;;18.70;99.90;;;;;;4991053;28;20505;-66
2023/09/03 08:28:53;;;;;;;6.63;3.70;;;18.70;99.90;;;;;;4957966;28;20198;-66
2023/09/03 08:31:19;;;;;;;6.55;3.28;;;18.70;99.90;;;;;;4977294;28;20264;-64
2023/09/03 08:33:45;;;;;;;5.38;3.40;;;18.80;99.90;;;;;;5000751;28;20206;-70
2023/09/03 08:36:11;;;;;;;6.32;4.00;;;18.80;99.90;;;;;;4984214;28;20212;-62
2023/09/03 08:38:37;;;;;;;7.32;4.00;;;18.80;99.90;;;;;;4976282;28;20244;-63
2023/09/03 08:41:03;;;;;;;6.00;3.35;;;18.80;99.90;;;;;;4982907;28;20210;-63
2023/09/03 08:43:30;;;;;;;8.30;3.70;;;18.90;99.90;;;;;;4972598;28;20488;-64
2023/09/03 08:46:06;;;;;;;6.70;3.20;;;18.90;99.90;;;;;;4973303;28;20194;-63
2023/09/03 08:48:33;;;;;;;6.65;3.22;;;18.90;99.90;;;;;;4969508;28;20189;-66
2023/09/03 08:51:00;;;;;;;5.82;3.05;;;19.00;99.90;;;;;;4976062;28;20245;-63
2023/09/03 08:53:27;;;;;;;7.18;3.28;;;19.10;99.90;;;;;;4971297;28;20186;-63
2023/09/03 08:55:53;;;;;;;4.10;2.80;;;19.10;99.90;;;;;;4974712;28;20190;-63
2023/09/03 08:58:19;;;;;;;6.30;3.20;;;19.10;99.90;;;;;;4970969;28;20200;-63
2023/09/03 09:00:45;;;;;;;5.10;2.60;;;19.20;99.90;;;;;;4974883;28;20280;-62
2023/09/03 09:03:13;;;;;;;8.55;2.80;;;19.30;99.90;;;;;;4971895;28;20231;-63
2023/09/03 09:05:42;;;;;;;6.10;2.60;;;19.30;99.90;;;;;;4975652;28;20186;-68
2023/09/03 09:08:08;;;;;;;4.97;2.80;;;19.40;99.90;;;;;;4971553;28;20189;-63
2023/09/03 09:10:39;;;;;;;4.63;2.80;;;19.50;99.90;;;;;;4974271;28;20256;-62
2023/09/03 09:13:11;;;;;;;4.80;3.15;;;19.60;99.90;;;;;;4971428;28;20182;-63
2023/09/03 09:15:42;;;;;;;5.53;3.17;;;19.60;99.90;;;;;;4972903;28;20186;-65
2023/09/03 09:18:09;;;;;;;4.07;2.75;;;19.60;99.90;;;;;;4980629;28;20190;-63
2023/09/03 09:20:39;;;;;;;7.25;3.25;;;19.70;99.90;;;;;;4975771;28;20186;-63
2023/09/03 09:23:07;;;;;;;5.63;3.63;;;19.70;99.90;;;;;;4970355;28;20281;-63
2023/09/03 09:25:35;;;;;;;4.75;3.42;;;19.70;99.90;;;;;;5007828;28;20264;-63
2023/09/03 09:28:10;;;;;;;3.60;2.63;;;19.70;99.90;;;;;;4971271;28;20265;-63
2023/09/03 09:30:36;;;;;;;7.00;2.80;;;19.80;99.90;;;;;;4973559;28;20192;-65
2023/09/03 09:33:07;;;;;;;5.53;2.80;;;19.80;99.90;;;;;;4971674;28;20193;-63
2023/09/03 09:35:34;;;;;;;5.78;2.60;;;19.90;99.90;;;;;;4973249;28;20205;-65
2023/09/03 09:38:05;;;;;;;6.00;3.35;;;19.90;99.90;;;;;;4969776;28;20210;-64
2023/09/03 09:40:31;;;;;;;5.80;3.10;;;19.90;99.90;;;;;;4972565;28;20202;-63
2023/09/03 09:43:03;;;;;;;6.82;3.20;;;19.90;99.90;;;;;;4971652;28;20189;-65
2023/09/03 09:45:31;;;;;;;7.50;3.30;;;19.90;99.90;;;;;;4973416;28;20181;-62
2023/09/03 09:48:04;;;;;;;8.77;3.88;;;19.90;99.90;;;;;;4970410;28;20225;-64
2023/09/03 09:50:37;;;;;;;6.75;4.10;;;19.90;99.90;;;;;;4971444;28;20189;-65
2023/09/03 09:53:04;;;;;;;6.28;3.33;;;19.90;99.90;;;;;;4967498;28;20186;-62
2023/09/03 09:55:33;;;;;;;8.63;3.35;;;19.90;99.90;;;;;;4971442;28;20198;-65
2023/09/03 09:58:00;;;;;;;8.00;3.28;;;20.00;99.90;;;;;;4985330;28;20215;-71
2023/09/03 10:00:38;;;;;;;5.90;2.70;;;20.00;99.90;;;;;;4971049;28;20646;-63
2023/09/03 10:03:05;;;;;;;4.80;2.90;;;20.00;99.90;;;;;;4967741;28;20191;-64
2023/09/03 10:05:33;;;;;;;5.88;2.83;;;20.10;99.90;;;;;;4972337;28;20217;-63
2023/09/03 10:08:00;;;;;;;5.32;3.10;;;20.20;99.90;;;;;;4968830;28;20241;-62
2023/09/03 10:10:26;;;;;;;4.85;2.80;;;20.20;99.90;;;;;;4970358;28;20196;-63
2023/09/03 10:12:53;;;;;;;5.47;2.60;;;20.30;99.90;;;;;;4969696;28;20233;-64
2023/09/03 10:15:21;;;;;;;2.83;2.25;;;20.30;99.90;;;;;;4970589;28;20193;-62
2023/09/03 10:17:51;;;;;;;7.00;2.70;;;20.30;99.90;;;;;;4964894;28;20210;-63
2023/09/03 10:20:19;;;;;;;3.28;2.50;;;20.30;99.90;;;;;;4986109;28;20272;-65
2023/09/03 10:22:49;;;;;;;5.95;2.40;;;20.40;99.90;;;;;;4969955;28;20190;-61
2023/09/03 10:25:19;;;;;;;3.60;2.13;;;20.40;99.90;;;;;;4967959;28;20193;-63
2023/09/03 10:27:50;;;;;;;5.75;2.30;;;20.40;99.90;;;;;;4985537;28;20186;-63
2023/09/03 10:30:21;;;;;;;5.13;2.10;;;20.50;99.90;;;;;;4983172;28;20190;-63
2023/09/03 10:32:47;;;;;;;4.68;2.30;;;20.50;99.90;;;;;;4996795;28;20568;-64
2023/09/03 10:35:13;;;;;;;4.70;2.15;;;20.50;99.90;;;;;;4966789;28;20198;-62
2023/09/03 10:37:42;;;;;;;3.38;2.40;;;20.60;99.90;;;;;;4966391;28;20220;-61
2023/09/03 10:40:25;;;;;;;4.68;2.40;;;20.70;99.90;;;;;;4999346;28;20194;-61
2023/09/03 10:42:53;;;;;;;4.38;2.67;;;20.80;99.90;;;;;;4968631;28;20216;-62
2023/09/03 10:45:19;;;;;;;6.65;2.20;;;20.80;99.90;;;;;;4967709;28;20193;-63
2023/09/03 10:48:05;;;;;;;4.07;1.92;;;20.90;99.90;;;;;;4967278;28;20235;-63
2023/09/03 10:50:44;;;;;;;2.67;1.70;;;20.90;99.90;;;;;;4968203;28;20284;-62
2023/09/03 10:53:40;;;;;;;3.58;1.90;;;20.90;99.90;;;;;;4965511;28;20281;-63
2023/09/03 10:56:11;;;;;;;6.15;2.30;;;20.90;99.90;;;;;;4983758;28;20213;-63
2023/09/03 10:58:57;;;;;;;2.88;1.90;;;20.90;99.90;;;;;;4978557;28;20186;-63
2023/09/03 11:01:26;;;;;;;3.90;2.30;;;21.00;99.90;;;;;;4967138;28;20174;-63
2023/09/03 11:03:53;;;;;;;3.05;1.90;;;21.00;99.90;;;;;;4997874;28;20593;-62
2023/09/03 11:06:24;;;;;;;3.58;2.30;;;21.00;99.90;;;;;;4968236;28;20190;-63
2023/09/03 11:08:58;;;;;;;3.40;2.15;;;21.10;99.90;;;;;;4995354;28;20663;-63
2023/09/03 11:11:27;;;;;;;2.90;1.80;;;21.10;99.90;;;;;;4987144;28;20652;-67
2023/09/03 11:13:53;;;;;;;5.43;1.98;;;21.10;99.90;;;;;;4964018;28;20244;-63
2023/09/03 11:16:27;;;;;;;6.05;3.15;;;21.10;99.90;;;;;;4951600;28;20712;-62
2023/09/03 11:18:53;;;;;;;3.30;1.88;;;21.10;99.90;;;;;;4968578;28;20186;-63
2023/09/03 11:21:19;;;;;;;4.70;2.60;;;21.20;99.90;;;;;;4965706;28;20209;-64
2023/09/03 11:24:20;;;;;;;3.50;2.35;;;21.20;99.90;;;;;;4974683;28;20641;-63
2023/09/03 11:27:03;;;;;;;6.18;2.30;;;21.20;99.90;;;;;;4974740;28;20211;-62
2023/09/03 11:29:28;;;;;;;4.68;2.25;;;21.20;99.90;;;;;;4963665;28;20273;-62
2023/09/03 11:31:55;;;;;;;6.22;2.10;;;21.30;99.90;;;;;;4958275;28;20273;-63
2023/09/03 11:34:29;;;;;;;4.38;2.20;;;21.40;99.90;;;;;;4968733;28;20213;-62
2023/09/03 11:36:56;;;;;;;3.78;2.10;;;21.40;99.90;;;;;;4989390;28;20280;-63
2023/09/03 11:39:23;;;;;;;2.35;1.70;;;21.50;99.90;;;;;;4956026;28;20199;-62
2023/09/03 11:41:49;;;;;;;3.33;1.95;;;21.50;99.90;;;;;;4964087;28;20269;-64
2023/09/03 11:44:16;;;;;;;5.22;2.33;;;21.60;99.90;;;;;;4969595;28;20295;-62
2023/09/03 11:47:03;;;;;;;3.58;2.17;;;21.60;99.90;;;;;;4973698;28;20740;-64
2023/09/03 11:49:29;;;;;;;3.67;2.10;;;21.60;99.90;;;;;;4968564;28;20200;-61
2023/09/03 11:52:12;;;;;;;4.57;2.28;;;21.60;99.90;;;;;;4992085;28;20573;-64
2023/09/03 11:54:38;;;;;;;2.45;1.90;;;21.60;99.90;;;;;;4966562;28;20272;-63
2023/09/03 11:57:05;;;;;;;6.30;2.10;;;21.70;99.90;;;;;;4974544;28;20320;-62
2023/09/03 11:59:32;;;;;;;3.55;1.83;;;21.80;99.90;;;;;;4952275;28;20315;-61
2023/09/03 12:01:58;;;;;;;3.90;1.67;;;21.80;99.90;;;;;;5002844;28;20717;-62
2023/09/03 12:04:24;;;;;;;2.78;2.03;;;21.80;99.90;;;;;;4967214;28;20229;-63
2023/09/03 12:06:50;;;;;;;5.85;2.00;;;21.80;99.90;;;;;;4975391;28;20244;-62
2023/09/03 12:09:22;;;;;;;4.25;2.00;;;21.90;99.90;;;;;;5001490;28;20190;-63
2023/09/03 12:11:48;;;;;;;5.22;2.25;;;22.00;99.90;;;;;;4985443;28;20662;-65
2023/09/03 12:14:28;;;;;;;4.82;2.05;;;22.10;99.90;;;;;;4970040;28;20198;-63
2023/09/03 12:16:53;;;;;;;5.45;2.33;;;22.20;99.90;;;;;;4978551;28;20210;-63
2023/09/03 12:19:20;;;;;;;4.97;2.30;;;22.30;99.90;;;;;;4994634;28;20209;-61
2023/09/03 12:21:54;;;;;;;3.10;1.80;;;22.40;99.90;;;;;;4975090;28;20186;-63
2023/09/03 12:24:29;;;;;;;4.55;2.65;;;22.50;99.90;;;;;;4970317;28;20264;-62
2023/09/03 12:27:06;;;;;;;3.38;2.30;;;22.50;99.90;;;;;;4970201;28;20193;-64
2023/09/03 12:29:35;;;;;;;3.60;2.10;;;22.60;99.90;;;;;;4965997;28;20185;-62
2023/09/03 12:32:02;;;;;;;6.20;1.88;;;22.70;99.90;;;;;;4972823;28;20200;-63
2023/09/03 12:34:39;;;;;;;4.03;2.20;;;22.70;99.90;;;;;;4969609;28;20285;-63
2023/09/03 12:37:06;;;;;;;2.40;1.70;;;22.70;99.90;;;;;;4988406;28;20636;-64
2023/09/03 12:39:36;;;;;;;3.08;2.00;;;22.70;99.90;;;;;;4969826;28;20181;-65
2023/09/03 12:42:05;;;;;;;3.40;2.00;;;22.80;99.90;;;;;;4968907;28;20236;-63
2023/09/03 12:44:31;;;;;;;8.10;1.90;;;22.80;99.90;;;;;;4965665;28;20195;-63